Time;durP1;ratioP1;P1;durP2;ratioP2;P2;SDS_P1;SDS_P2;PMS_P1;PMS_P2;Temp;Humidity;BMP_temperature;BMP_pressure;BME280_temperature;BME280_humidity;BME280_pressure;Samples;Min_cycle;Max_cycle;Signal;HPM_P1;HPM_P2
2024/01/18 00:02:56;;;;;;;;;;;;;;;;;;2560468;28;270089640;-80
2024/01/18 00:06:41;;;;;;;;;;;;;;;;;;2;224279116;224279116;-80
2024/01/18 00:17:11;;;;;;;;;;;;;;;;;;3059729;28;279099595;-79
2024/01/18 00:25:36;;;;;;;;;;;;;;;;;;2;234079697;234079697;-80
2024/01/18 00:34:36;;;;;;;;;;;;;;;;;;2;279094854;279094854;-79
2024/01/18 00:43:00;;;;;;;;;;;;;;;;;;2;234078918;234078918;-80
2024/01/18 00:52:02;;;;;;;;;;;;;;;;;;2;279092745;279092745;-76
2024/01/18 01:00:27;;;;;;;;;;;;;;;;;;2;234083074;234083074;-78
2024/01/18 01:09:28;;;;;;;;;;;;;;;;;;2;279092719;279092719;-77
2024/01/18 01:17:53;;;;;;;;;;;;;;;;;;2;234076414;234076414;-81
2024/01/18 01:26:53;;;;;;;;;;;;;;;;;;2;279091942;279091942;-81
2024/01/18 01:35:17;;;;;;;;;;;;;;;;;;2;234078893;234078893;-81
2024/01/18 01:44:18;;;;;;;;;;;;;;;;;;2;279091489;279091489;-76
2024/01/18 01:52:42;;;;;;;;;;;;;;;;;;2;234079838;234079838;-78
2024/01/18 02:01:42;;;;;;;;;;;;;;;;;;2;279092281;279092281;-77
2024/01/18 02:10:07;;;;;;;;;;;;;;;;;;2;234081614;234081614;-79
2024/01/18 02:19:07;;;;;;;;;;;;;;;;;;2;279094704;279094704;-86
2024/01/18 02:27:31;;;;;;;;;;;;;;;;;;2;234078039;234078039;-82
2024/01/18 02:36:32;;;;;;;;;;;;;;;;;;2;279090982;279090982;-82
2024/01/18 02:44:57;;;;;;;;;;;;;;;;;;2;234075298;234075298;-82
2024/01/18 02:53:57;;;;;;;;;;;;;;;;;;2;279092471;279092471;-81
2024/01/18 03:02:22;;;;;;;;;;;;;;;;;;2;234078808;234078808;-82
2024/01/18 03:11:22;;;;;;;;;;;;;;;;;;2;279087640;279087640;-83
2024/01/18 03:17:15;;;;;;;;;;;;;;;;;;2;234074590;234074590;-82
2024/01/18 03:26:58;;;;;;;;;;;;;;;;;;1211046;28;268153789;-82
2024/01/18 03:29:23;;;;;;;;;;;;;;;;;;378216;28;133524161;-81
2024/01/18 03:39:37;;;;;;;;;;;;;;;;;;1863280;28;233353026;-81
2024/01/18 03:47:15;;;;;;;;;;;;;;;;;;2;279090014;279090014;-82
2024/01/18 03:57:42;;;;;;;;;;;;;;;;;;3528914;28;258055094;-79
2024/01/18 04:06:51;;;;;;;;;;;;;;;;;;2;270084600;270084600;-81
2024/01/18 04:15:07;;;;;;;;;;;;;;;;;;2;261084081;261084081;-81
2024/01/18 04:24:17;;;;;;;;;;;;;;;;;;2;270089562;270089562;-82
2024/01/18 04:32:32;;;;;;;;;;;;;;;;;;2;261086000;261086000;-83
2024/01/18 04:41:41;;;;;;;;;;;;;;;;;;2;270088881;270088881;-83
2024/01/18 04:49:57;;;;;;;;;;;;;;;;;;2;261085958;261085958;-83
2024/01/18 04:59:08;;;;;;;;;;;;;;;;;;2;270090968;270090968;-83
2024/01/18 05:07:23;;;;;;;;;;;;;;;;;;2;261088137;261088137;-83
2024/01/18 05:16:38;;;;;;;;;;;;;;;;;;2;270092151;270092151;-82
2024/01/18 05:24:53;;;;;;;;;;;;;;;;;;2;261090967;261090967;-83
2024/01/18 05:34:02;;;;;;;;;;;;;;;;;;2;270091339;270091339;-80
2024/01/18 05:42:18;;;;;;;;;;;;;;;;;;2;261091329;261091329;-85
2024/01/18 05:51:28;;;;;;;;;;;;;;;;;;2;270085583;270085583;-86
2024/01/18 05:59:44;;;;;;;;;;;;;;;;;;2;261072696;261072696;-85
2024/01/18 06:08:53;;;;;;;;;;;;;;;;;;2;270085207;270085207;-81
2024/01/18 06:17:08;;;;;;;;;;;;;;;;;;2;261087424;261087424;-79
2024/01/18 06:26:18;;;;;;;;;;;;;;;;;;2;270092034;270092034;-77
2024/01/18 06:34:32;;;;;;;;;;;;;;;;;;2;260489742;260489742;-76
2024/01/18 06:43:42;;;;;;;;;;;;;;;;;;2;270093588;270093588;-80
2024/01/18 06:51:57;;;;;;;;;;;;;;;;;;2;261088379;261088379;-79
2024/01/18 07:01:06;;;;;;;;;;;;;;;;;;2;270090271;270090271;-78
2024/01/18 07:09:22;;;;;;;;;;;;;;;;;;2;261090182;261090182;-82
2024/01/18 07:18:50;;;;;;;;;;;;;;;;;;2;270091294;270091294;-81
2024/01/18 07:27:10;;;;;;;;;;;;;;;;;;2;261085765;261085765;-81
2024/01/18 07:36:19;;;;;;;;;;;;;;;;;;2;270092466;270092466;-82
2024/01/18 07:44:34;;;;;;;;;;;;;;;;;;2;260807820;260807820;-81
2024/01/18 07:53:46;;;;;;;;;;;;;;;;;;2;269837170;269837170;-81
2024/01/18 08:02:01;;;;;;;;;;;;;;;;;;2;260715232;260715232;-82
2024/01/18 08:11:10;;;;;;;;;;;;;;;;;;2;269550080;269550080;-82
2024/01/18 08:19:21;;;;;;;;;;;;;;;;;;2;259525118;259525118;-82
2024/01/18 08:28:28;;;;;;;;;;;;;;;;;;2;267911355;267911355;-86
2024/01/18 08:36:41;;;;;;;;;;;;;;;;;;2;259358157;259358157;-83
2024/01/18 08:45:48;;;;;;;;;;;;;;;;;;2;268214948;268214948;-80
2024/01/18 08:54:01;;;;;;;;;;;;;;;;;;2;260126033;260126033;-86
2024/01/18 09:03:08;;;;;;;;;;;;;;;;;;2;268369834;268369834;-86
2024/01/18 09:11:35;;;;;;;;;;;;;;;;;;2;256878766;256878766;-84
2024/01/18 09:20:45;;;;;;;;;;;;;;;;;;2;267465798;267465798;-81
2024/01/18 09:28:57;;;;;;;;;;;;;;;;;;2;258771144;258771144;-82
2024/01/18 09:38:04;;;;;;;;;;;;;;;;;;2;268343770;268343770;-80
2024/01/18 09:46:18;;;;;;;;;;;;;;;;;;2;259372008;259372008;-83
2024/01/18 09:55:28;;;;;;;;;;;;;;;;;;2;268365297;268365297;-83
2024/01/18 10:03:41;;;;;;;;;;;;;;;;;;2;258921105;258921105;-88
2024/01/18 10:12:49;;;;;;;;;;;;;;;;;;2;268208499;268208499;-87
2024/01/18 10:21:01;;;;;;;;;;;;;;;;;;2;258311384;258311384;-88
2024/01/18 10:30:20;;;;;;;;;;;;;;;;;;2;268802211;268802211;-86
2024/01/18 10:38:41;;;;;;;;;;;;;;;;;;2;258291156;258291156;-86
2024/01/18 10:47:43;;;;;;;;;;;;;;;;;;2;267909534;267909534;-86
2024/01/18 10:50:08;;;;;;;;;;;;;;;;;;1395311;28;104617451;-86
2024/01/18 10:52:33;;;;;;;;;;;;;;;;;;5024440;28;28491;-86
2024/01/18 10:54:59;;;;;;;;;;;;;;;;;;5024505;28;28648;-86
2024/01/18 10:57:27;;;;;;;;;;;;;;;;;;5020054;28;28556;-86
2024/01/18 10:59:55;;;;;;;;;;;;;;;;;;4997936;28;28574;-84
2024/01/18 11:02:23;;;;;;;;;;;;;;;;;;4991689;28;29249;-87
2024/01/18 11:04:49;;;;;;;;;;;;;;;;;;5003267;28;30064;-87
2024/01/18 11:07:14;;;;;;;;;;;;;;;;;;5000300;28;28564;-86
2024/01/18 11:09:41;;;;;;;;;;;;;;;;;;4998219;28;28536;-86
2024/01/18 11:12:10;;;;;;;;;;;;;;;;;;5003094;28;29243;-89
2024/01/18 11:14:40;;;;;;;;;;;;;;;;;;5002380;28;30138;-88
2024/01/18 11:20:04;;;;;;;;;;;;;;;;;;;;;
2024/01/18 11:28:15;;;;;;;;;;;;;;;;;;4998393;28;28511;-81
2024/01/18 11:30:40;;;;;;;;;;;;;;;;;;4991965;28;28452;-79
2024/01/18 11:33:06;;;;;;;;;;;;;;;;;;4997625;28;29138;-83
2024/01/18 11:35:41;;;;;;;;;;;;;;;;;;;;;
2024/01/18 11:38:13;;;;;;;;;;;;;;;;;;5000411;28;56000;-80
2024/01/18 11:40:42;;;;;;;;;;;;;;;;;;4999260;28;27919;-78
2024/01/18 11:43:08;;;;;;;;;;;;;;;;;;4975243;28;29105;-79
2024/01/18 11:45:33;;;;;;;;;;;;;;;;;;4997980;28;30456;-78
2024/01/18 11:47:58;;;;;;;;;;;;;;;;;;4989280;28;28966;-79
2024/01/18 11:50:30;;;;;;;;;;;;;;;;;;4993088;28;28550;-79
2024/01/18 11:53:02;;;;;;;;;;;;;;;;;;4993691;28;28566;-79
2024/01/18 11:55:28;;;;;;;;;;;;;;;;;;4991204;28;28600;-82
2024/01/18 11:57:53;;;;;;;;;;;;;;;;;;4962985;28;1259402;-84
2024/01/18 12:00:18;;;;;;;;;;;;;;;;;;5027204;28;28687;-84
2024/01/18 12:02:44;;;;;;;;;;;;;;;;;;5015981;28;28592;-82
2024/01/18 12:05:09;;;;;;;;;;;;;;;;;;5016281;28;29718;-81
2024/01/18 12:07:34;;;;;;;;;;;;;;;;;;5012139;28;28854;-81
2024/01/18 12:09:59;;;;;;;;;;;;;;;;;;5013572;28;28644;-80
2024/01/18 12:12:24;;;;;;;;;;;;;;;;;;5018650;28;28395;-85
2024/01/18 12:14:49;;;;;;;;;;;;;;;;;;5011800;28;30232;-79
2024/01/18 12:17:14;;;;;;;;;;;;;;;;;;5014702;28;28731;-80
2024/01/18 12:19:43;;;;;;;;;;;;;;;;;;5010397;28;29071;-79
2024/01/18 12:22:08;;;;;;;;;;;;;;;;;;5012553;28;28871;-80
2024/01/18 12:24:33;;;;;;;;;;;;;;;;;;5013664;28;28475;-80
2024/01/18 12:26:58;;;;;;;;;;;;;;;;;;5012725;28;28900;-80
2024/01/18 12:29:24;;;;;;;;;;;;;;;;;;5009164;28;28844;-80
2024/01/18 12:31:49;;;;;;;;;;;;;;;;;;5012635;28;28947;-83
2024/01/18 12:34:14;;;;;;;;;;;;;;;;;;5010670;28;30151;-79
2024/01/18 12:36:39;;;;;;;;;;;;;;;;;;5009222;28;28706;-79
2024/01/18 12:39:04;;;;;;;;;;;;;;;;;;5004801;28;28933;-80
2024/01/18 12:41:32;;;;;;;;;;;;;;;;;;5014453;28;28617;-80
2024/01/18 12:43:57;;;;;;;;;;;;;;;;;;5011338;28;29734;-79
2024/01/18 12:46:22;;;;;;;;;;;;;;;;;;5012047;28;28709;-79
2024/01/18 12:48:48;;;;;;;;;;;;;;;;;;5011538;28;28479;-80
2024/01/18 12:51:13;;;;;;;;;;;;;;;;;;5011148;28;29701;-79
2024/01/18 12:53:38;;;;;;;;;;;;;;;;;;5011840;28;30024;-80
2024/01/18 12:56:04;;;;;;;;;;;;;;;;;;5012509;28;28412;-80
2024/01/18 12:58:29;;;;;;;;;;;;;;;;;;5013116;28;28504;-80
2024/01/18 13:00:54;;;;;;;;;;;;;;;;;;5014293;28;28771;-84
2024/01/18 13:03:19;;;;;;;;;;;;;;;;;;5024478;28;29122;-85
2024/01/18 13:05:45;;;;;;;;;;;;;;;;;;5035399;28;28459;-84
2024/01/18 13:10:05;;;;;;;;;;;;;;;;;;4745139;28;422591;-72
2024/01/18 13:12:30;;;;;;;;;;;;;;;;;;5060376;27;81289;-73
2024/01/18 13:14:55;;;;;;;;;;;;;;;;;;5063680;27;60882;-76
2024/01/18 13:17:20;;;;;;;;;;;;;;;;;;5078114;27;29020;-74
2024/01/18 13:19:45;;;;;;;;;;;;;;;;;;5051111;27;82723;-72
2024/01/18 13:22:10;;;;;;;;;;;;;;;;;;5056136;27;44051;-72
2024/01/18 13:24:35;;;;;;;;;;;;;;;;;;4890726;28;530170;-71
2024/01/18 13:27:04;;;;;;;;;;;;;;;;;;5076827;27;28411;-72
2024/01/18 13:29:29;;;;;;;;;;;;;;;;;;5061752;28;28843;-72
2024/01/18 13:31:55;;;;;;;;;;;;;;;;;;5060861;28;28542;-72
2024/01/18 13:34:20;;;;;;;;;;;;;;;;;;5085650;28;27919;-76
2024/01/18 13:36:46;;;;;;;;;;;;;;;;;;5075934;27;29326;-72
2024/01/18 13:39:11;;;;;;;;;;;;;;;;;;5085890;28;28949;-70
2024/01/18 13:41:36;;;;;;;;;;;;;;;;;;5078569;27;28471;-72
2024/01/18 13:44:02;;;;;;;;;;;;;;;;;;5071753;28;29401;-77
2024/01/18 13:46:28;;;;;;;;;;;;;;;;;;5067333;28;28864;-77
2024/01/18 13:48:53;;;;;;;;;;;;;;;;;;5058014;28;28465;-73
2024/01/18 13:51:18;;;;;;;;;;;;;;;;;;5076605;28;29620;-77
2024/01/18 13:53:45;;;;;;;;;;;;;;;;;;5085210;27;28379;-72
2024/01/18 13:56:10;;;;;;;;;;;;;;;;;;5079405;28;29432;-72
2024/01/18 13:58:36;;;;;;;;;;;;;;;;;;5062611;28;29717;-71
2024/01/18 14:01:01;;;;;;;;;;;;;;;;;;5069498;28;28405;-78
2024/01/18 14:03:26;;;;;;;;;;;;;;;;;;5065814;28;28503;-77
2024/01/18 14:05:51;;;;;;;;;;;;;;;;;;5066897;28;28970;-76
2024/01/18 14:08:16;;;;;;;;;;;;;;;;;;5077269;27;30141;-76
2024/01/18 14:10:41;;;;;;;;;;;;;;;;;;5070261;28;28400;-76
2024/01/18 14:13:06;;;;;;;;;;;;;;;;;;5093636;27;28443;-74
2024/01/18 14:15:31;;;;;;;;;;;;;;;;;;5086233;27;28776;-77
2024/01/18 14:17:57;;;;;;;;;;;;;;;;;;5085326;27;31022;-74
2024/01/18 14:20:22;;;;;;;;;;;;;;;;;;5078985;27;28753;-75
2024/01/18 14:22:47;;;;;;;;;;;;;;;;;;5056441;28;28473;-76
2024/01/18 14:25:12;;;;;;;;;;;;;;;;;;5078766;28;29282;-77
2024/01/18 14:27:37;;;;;;;;;;;;;;;;;;5080124;28;28424;-76
2024/01/18 14:30:03;;;;;;;;;;;;;;;;;;5075133;28;28613;-75
2024/01/18 14:32:29;;;;;;;;;;;;;;;;;;5093259;28;28435;-78
2024/01/18 14:34:54;;;;;;;;;;;;;;;;;;5073749;28;28970;-71
2024/01/18 14:37:19;;;;;;;;;;;;;;;;;;5081152;28;29685;-71
2024/01/18 14:39:44;;;;;;;;;;;;;;;;;;5073853;28;28387;-71
2024/01/18 14:42:10;;;;;;;;;;;;;;;;;;5077715;28;28503;-71
2024/01/18 14:44:39;;;;;;;;;;;;;;;;;;5058893;28;28440;-71
2024/01/18 14:47:04;;;;;;;;;;;;;;;;;;5072334;28;29213;-71
2024/01/18 14:49:29;;;;;;;;;;;;;;;;;;5070050;28;28690;-70
2024/01/18 14:51:54;;;;;;;;;;;;;;;;;;5080129;28;28423;-71
2024/01/18 14:54:19;;;;;;;;;;;;;;;;;;5067347;28;28820;-70
2024/01/18 14:56:46;;;;;;;;;;;;;;;;;;5086238;28;29376;-70
2024/01/18 14:59:11;;;;;;;;;;;;;;;;;;5093278;22;29025;-79
2024/01/18 15:01:39;;;;;;;;;;;;;;;;;;5092819;28;28839;-78
2024/01/18 15:04:05;;;;;;;;;;;;;;;;;;5087799;28;28565;-76
2024/01/18 15:06:30;;;;;;;;;;;;;;;;;;5086643;28;29080;-77
2024/01/18 15:08:55;;;;;;;;;;;;;;;;;;5092561;28;28588;-77
2024/01/18 15:11:20;;;;;;;;;;;;;;;;;;5075590;28;28668;-77
2024/01/18 15:13:46;;;;;;;;;;;;;;;;;;5096755;28;28533;-78
2024/01/18 15:16:11;;;;;;;;;;;;;;;;;;5074598;28;31074;-77
2024/01/18 15:18:36;;;;;;;;;;;;;;;;;;5077649;28;28604;-77
2024/01/18 15:21:03;;;;;;;;;;;;;;;;;;5086669;28;28484;-76
2024/01/18 15:23:28;;;;;;;;;;;;;;;;;;5092565;28;28581;-76
2024/01/18 15:25:53;;;;;;;;;;;;;;;;;;5074198;28;28974;-76
2024/01/18 15:28:22;;;;;;;;;;;;;;;;;;5094692;28;28434;-84
2024/01/18 15:31:04;;;;;;;;;;;;;;;;;;5094871;27;28430;-82
2024/01/18 15:33:29;;;;;;;;;;;;;;;;;;5077648;28;28896;-80
2024/01/18 15:35:54;;;;;;;;;;;;;;;;;;5091038;28;29217;-78
2024/01/18 15:38:19;;;;;;;;;;;;;;;;;;5091880;28;28415;-78
2024/01/18 15:40:44;;;;;;;;;;;;;;;;;;5075361;28;28542;-78
2024/01/18 15:43:09;;;;;;;;;;;;;;;;;;5093241;28;28499;-79
2024/01/18 15:45:40;;;;;;;;;;;;;;;;;;5075620;28;29590;-86
2024/01/18 15:48:06;;;;;;;;;;;;;;;;;;5082532;28;28585;-86
2024/01/18 15:50:41;;;;;;;;;;;;;;;;;;5096302;28;28547;-82
2024/01/18 15:53:17;;;;;;;;;;;;;;;;;;5094549;27;28603;-81
2024/01/18 15:55:48;;;;;;;;;;;;;;;;;;5097836;28;29716;-89
2024/01/18 16:01:17;;;;;;;;;;;;;;;;;;4999864;28;29033;-84
2024/01/18 16:04:10;;;;;;;;;;;;;;;;;;;;;
2024/01/18 16:06:31;;;;;;;;;;;;;;;;;;5102190;27;28617;-84
2024/01/18 16:08:58;;;;;;;;;;;;;;;;;;5100892;28;28911;-87
2024/01/18 16:11:24;;;;;;;;;;;;;;;;;;5106614;28;27919;-85
2024/01/18 16:13:54;;;;;;;;;;;;;;;;;;5083430;28;29146;-88
2024/01/18 16:16:20;;;;;;;;;;;;;;;;;;5087099;28;29809;-87
2024/01/18 16:18:50;;;;;;;;;;;;;;;;;;5082876;28;29285;-87
2024/01/18 16:21:18;;;;;;;;;;;;;;;;;;5089312;28;27902;-89
2024/01/18 16:23:48;;;;;;;;;;;;;;;;;;5098321;28;29453;-89
2024/01/18 16:29:22;;;;;;;;;;;;;;;;;;;;;
2024/01/18 16:31:51;;;;;;;;;;;;;;;;;;5008443;28;27860;-89
2024/01/18 16:34:26;;;;;;;;;;;;;;;;;;;;;
2024/01/18 16:36:55;;;;;;;;;;;;;;;;;;4994504;28;57615;-89
2024/01/18 16:39:21;;;;;;;;;;;;;;;;;;5007415;28;28249;-80
2024/01/18 16:41:46;;;;;;;;;;;;;;;;;;5071901;27;28883;-81
2024/01/18 16:44:12;;;;;;;;;;;;;;;;;;5100229;27;29054;-79
2024/01/18 16:46:37;;;;;;;;;;;;;;;;;;5093771;27;28560;-82
2024/01/18 16:49:04;;;;;;;;;;;;;;;;;;5094896;28;28596;-81
2024/01/18 16:51:30;;;;;;;;;;;;;;;;;;5094450;27;28596;-80
2024/01/18 16:53:55;;;;;;;;;;;;;;;;;;5089873;28;28464;-80
2024/01/18 16:56:20;;;;;;;;;;;;;;;;;;5076028;27;29552;-81
2024/01/18 16:58:45;;;;;;;;;;;;;;;;;;5092049;27;28568;-80
2024/01/18 17:01:10;;;;;;;;;;;;;;;;;;5068256;28;29045;-79
2024/01/18 17:03:35;;;;;;;;;;;;;;;;;;5080977;28;28724;-79
2024/01/18 17:06:00;;;;;;;;;;;;;;;;;;5089887;27;29241;-83
2024/01/18 17:08:25;;;;;;;;;;;;;;;;;;5064055;28;34370;-80
2024/01/18 17:10:51;;;;;;;;;;;;;;;;;;5088959;28;28995;-83
2024/01/18 17:13:19;;;;;;;;;;;;;;;;;;5068545;27;29613;-81
2024/01/18 17:15:44;;;;;;;;;;;;;;;;;;5092506;27;30032;-77
2024/01/18 17:18:09;;;;;;;;;;;;;;;;;;5084183;28;28412;-77
2024/01/18 17:20:34;;;;;;;;;;;;;;;;;;5086234;28;28423;-77
2024/01/18 17:23:00;;;;;;;;;;;;;;;;;;5088291;28;28656;-77
2024/01/18 17:25:25;;;;;;;;;;;;;;;;;;5067491;28;29639;-76
2024/01/18 17:27:50;;;;;;;;;;;;;;;;;;5061678;28;28460;-76
2024/01/18 17:30:15;;;;;;;;;;;;;;;;;;5083893;28;28724;-78
2024/01/18 17:32:40;;;;;;;;;;;;;;;;;;5086124;27;29208;-78
2024/01/18 17:35:05;;;;;;;;;;;;;;;;;;5085987;28;29216;-77
2024/01/18 17:37:30;;;;;;;;;;;;;;;;;;5087524;28;28964;-77
2024/01/18 17:39:55;;;;;;;;;;;;;;;;;;5085388;28;28594;-78
2024/01/18 17:42:20;;;;;;;;;;;;;;;;;;5069043;28;29088;-76
2024/01/18 17:44:46;;;;;;;;;;;;;;;;;;5087685;28;28485;-76
2024/01/18 17:47:11;;;;;;;;;;;;;;;;;;5069207;28;28524;-76
2024/01/18 17:49:36;;;;;;;;;;;;;;;;;;5087735;28;28555;-76
2024/01/18 17:52:01;;;;;;;;;;;;;;;;;;5090747;28;28713;-78
2024/01/18 17:54:27;;;;;;;;;;;;;;;;;;5087787;28;30087;-76
2024/01/18 17:56:52;;;;;;;;;;;;;;;;;;5098665;27;28510;-76
2024/01/18 17:59:17;;;;;;;;;;;;;;;;;;5090842;28;28620;-77
2024/01/18 18:04:26;;;;;;;;;;;;;;;;;;5104523;28;28446;-77
2024/01/18 18:06:52;;;;;;;;;;;;;;;;;;5091671;28;28446;-76
2024/01/18 18:09:17;;;;;;;;;;;;;;;;;;5091700;28;28627;-77
2024/01/18 18:11:43;;;;;;;;;;;;;;;;;;5072749;28;29814;-77
2024/01/18 18:14:08;;;;;;;;;;;;;;;;;;5091690;28;28520;-78
2024/01/18 18:16:33;;;;;;;;;;;;;;;;;;5072641;28;28657;-77
2024/01/18 18:18:59;;;;;;;;;;;;;;;;;;5089057;28;29025;-76
2024/01/18 18:21:31;;;;;;;;;;;;;;;;;;5095381;28;28890;-83
2024/01/18 18:23:56;;;;;;;;;;;;;;;;;;5078476;28;28763;-82
2024/01/18 18:26:23;;;;;;;;;;;;;;;;;;5095669;28;28437;-84
2024/01/18 18:28:54;;;;;;;;;;;;;;;;;;5086252;28;29134;-76
2024/01/18 18:31:19;;;;;;;;;;;;;;;;;;5082358;28;29184;-77
2024/01/18 18:33:44;;;;;;;;;;;;;;;;;;5084466;28;29793;-76
2024/01/18 18:36:09;;;;;;;;;;;;;;;;;;5090111;28;28933;-79
2024/01/18 18:38:34;;;;;;;;;;;;;;;;;;5082296;28;28466;-77
2024/01/18 18:41:00;;;;;;;;;;;;;;;;;;5096770;28;28453;-79
2024/01/18 18:43:25;;;;;;;;;;;;;;;;;;5104667;22;28713;-75
2024/01/18 18:45:50;;;;;;;;;;;;;;;;;;5081791;27;28874;-77
2024/01/18 18:48:15;;;;;;;;;;;;;;;;;;5087296;27;28727;-76
2024/01/18 18:50:40;;;;;;;;;;;;;;;;;;5088619;27;28922;-74
2024/01/18 18:53:05;;;;;;;;;;;;;;;;;;5080535;27;28835;-74
2024/01/18 18:55:31;;;;;;;;;;;;;;;;;;5085714;27;28503;-75
2024/01/18 18:57:56;;;;;;;;;;;;;;;;;;5089420;28;28386;-75
2024/01/18 19:00:21;;;;;;;;;;;;;;;;;;5075570;27;28906;-76
2024/01/18 19:02:46;;;;;;;;;;;;;;;;;;5089693;28;29587;-72
2024/01/18 19:05:15;;;;;;;;;;;;;;;;;;5086778;27;28899;-72
2024/01/18 19:07:40;;;;;;;;;;;;;;;;;;5081754;28;28802;-73
2024/01/18 19:10:05;;;;;;;;;;;;;;;;;;5087920;27;28665;-71
2024/01/18 19:12:30;;;;;;;;;;;;;;;;;;5083271;27;28488;-73
2024/01/18 19:14:55;;;;;;;;;;;;;;;;;;5088144;28;33447;-76
2024/01/18 19:17:20;;;;;;;;;;;;;;;;;;5084560;28;28372;-72
2024/01/18 19:19:46;;;;;;;;;;;;;;;;;;5080589;28;28667;-76
2024/01/18 19:22:11;;;;;;;;;;;;;;;;;;5092897;27;29065;-77
2024/01/18 19:24:36;;;;;;;;;;;;;;;;;;5097557;27;28443;-71
2024/01/18 19:27:01;;;;;;;;;;;;;;;;;;5090261;27;28518;-74
2024/01/18 19:29:26;;;;;;;;;;;;;;;;;;5099092;27;28677;-73
2024/01/18 19:31:51;;;;;;;;;;;;;;;;;;5106428;27;28780;-72
2024/01/18 19:34:16;;;;;;;;;;;;;;;;;;5096839;27;29247;-75
2024/01/18 19:36:41;;;;;;;;;;;;;;;;;;5105618;27;28851;-72
2024/01/18 19:39:08;;;;;;;;;;;;;;;;;;5103640;27;28947;-73
2024/01/18 19:41:33;;;;;;;;;;;;;;;;;;5091699;27;28507;-73
2024/01/18 19:43:58;;;;;;;;;;;;;;;;;;5056498;28;28470;-71
2024/01/18 19:46:23;;;;;;;;;;;;;;;;;;5076555;28;28583;-72
2024/01/18 19:48:48;;;;;;;;;;;;;;;;;;5091094;27;28856;-71
2024/01/18 19:51:13;;;;;;;;;;;;;;;;;;5071126;28;30075;-71
2024/01/18 19:53:38;;;;;;;;;;;;;;;;;;5070498;28;28562;-72
2024/01/18 19:56:03;;;;;;;;;;;;;;;;;;5067593;28;28448;-73
2024/01/18 19:58:29;;;;;;;;;;;;;;;;;;5067546;28;28749;-73
2024/01/18 20:00:54;;;;;;;;;;;;;;;;;;5064309;28;28617;-77
2024/01/18 20:03:19;;;;;;;;;;;;;;;;;;5067304;27;28462;-76
2024/01/18 20:05:44;;;;;;;;;;;;;;;;;;5068296;28;28458;-75
2024/01/18 20:08:09;;;;;;;;;;;;;;;;;;5075126;27;28649;-77
2024/01/18 20:10:35;;;;;;;;;;;;;;;;;;5068406;28;28630;-77
2024/01/18 20:13:00;;;;;;;;;;;;;;;;;;5065407;28;28180;-79
2024/01/18 20:15:25;;;;;;;;;;;;;;;;;;5071430;28;28014;-80
2024/01/18 20:17:50;;;;;;;;;;;;;;;;;;5084931;27;29215;-79
2024/01/18 20:20:15;;;;;;;;;;;;;;;;;;5058671;28;29073;-76
2024/01/18 20:22:40;;;;;;;;;;;;;;;;;;5061495;28;28504;-76
2024/01/18 20:25:05;;;;;;;;;;;;;;;;;;5062273;28;28976;-75
2024/01/18 20:27:30;;;;;;;;;;;;;;;;;;5060060;28;29601;-76
2024/01/18 20:29:56;;;;;;;;;;;;;;;;;;5063498;28;29526;-76
2024/01/18 20:32:21;;;;;;;;;;;;;;;;;;5064962;28;28682;-78
2024/01/18 20:34:49;;;;;;;;;;;;;;;;;;5065553;28;28988;-78
2024/01/18 20:37:17;;;;;;;;;;;;;;;;;;5076562;28;29315;-78
2024/01/18 20:39:42;;;;;;;;;;;;;;;;;;5068390;27;28907;-79
2024/01/18 20:42:07;;;;;;;;;;;;;;;;;;5077047;28;28928;-75
2024/01/18 20:44:32;;;;;;;;;;;;;;;;;;5068719;28;28776;-78
2024/01/18 20:46:57;;;;;;;;;;;;;;;;;;5067368;27;29047;-75
2024/01/18 20:49:23;;;;;;;;;;;;;;;;;;5070635;28;28530;-75
2024/01/18 20:51:48;;;;;;;;;;;;;;;;;;5065918;28;28452;-75
2024/01/18 20:54:17;;;;;;;;;;;;;;;;;;5014481;28;134196;-75
2024/01/18 20:56:42;;;;;;;;;;;;;;;;;;4980404;28;379192;-75
2024/01/18 21:03:30;;;;;;;;;;;;;;;;;;5035185;27;431234;-76
2024/01/18 21:07:27;;;;;;;;;;;;;;;;;;5068789;27;190349;-74
2024/01/18 21:09:53;;;;;;;;;;;;;;;;;;5048658;27;89839;-75
2024/01/18 21:12:19;;;;;;;;;;;;;;;;;;5079560;27;43147;-78
2024/01/18 21:14:44;;;;;;;;;;;;;;;;;;5106942;27;37234;-77
2024/01/18 21:17:10;;;;;;;;;;;;;;;;;;5102688;27;28765;-78
2024/01/18 21:19:35;;;;;;;;;;;;;;;;;;5112631;27;28644;-77
2024/01/18 21:22:00;;;;;;;;;;;;;;;;;;5137277;27;28557;-78
2024/01/18 21:24:27;;;;;;;;;;;;;;;;;;5114187;27;28562;-78
2024/01/18 21:26:54;;;;;;;;;;;;;;;;;;5112890;27;29455;-78
2024/01/18 21:29:19;;;;;;;;;;;;;;;;;;5093278;27;89190;-78
2024/01/18 21:31:44;;;;;;;;;;;;;;;;;;5069488;27;583027;-77
2024/01/18 21:36:29;;;;;;;;;;;;;;;;;;4936892;27;247308;-75
2024/01/18 21:38:54;;;;;;;;;;;;;;;;;;5142557;27;33960;-75
2024/01/18 21:41:19;;;;;;;;;;;;;;;;;;5148611;27;28912;-77
2024/01/18 21:43:44;;;;;;;;;;;;;;;;;;5143097;27;28781;-78
2024/01/18 21:46:10;;;;;;;;;;;;;;;;;;5142747;27;28794;-79
2024/01/18 21:48:35;;;;;;;;;;;;;;;;;;5135506;27;29336;-76
2024/01/18 21:51:00;;;;;;;;;;;;;;;;;;5151564;27;28681;-75
2024/01/18 21:53:28;;;;;;;;;;;;;;;;;;5147097;27;28481;-75
2024/01/18 21:55:53;;;;;;;;;;;;;;;;;;5149338;27;30550;-77
2024/01/18 21:58:18;;;;;;;;;;;;;;;;;;5133879;27;39947;-77
2024/01/18 22:00:45;;;;;;;;;;;;;;;;;;5140851;27;28817;-77
2024/01/18 22:03:10;;;;;;;;;;;;;;;;;;5148108;27;28442;-76
2024/01/18 22:05:36;;;;;;;;;;;;;;;;;;5092603;27;77118;-79
2024/01/18 22:08:01;;;;;;;;;;;;;;;;;;5130547;27;69545;-78
2024/01/18 22:10:26;;;;;;;;;;;;;;;;;;5142902;27;28462;-77
2024/01/18 22:12:51;;;;;;;;;;;;;;;;;;5126042;27;30846;-78
2024/01/18 22:15:17;;;;;;;;;;;;;;;;;;5145030;27;29779;-78
2024/01/18 22:17:42;;;;;;;;;;;;;;;;;;5141492;27;28566;-77
2024/01/18 22:20:08;;;;;;;;;;;;;;;;;;5138407;27;28810;-78
2024/01/18 22:22:34;;;;;;;;;;;;;;;;;;5143405;27;28423;-78
2024/01/18 22:24:59;;;;;;;;;;;;;;;;;;5146913;27;29147;-81
2024/01/18 22:27:26;;;;;;;;;;;;;;;;;;5143300;27;28965;-79
2024/01/18 22:29:51;;;;;;;;;;;;;;;;;;5157344;27;28402;-78
2024/01/18 22:32:16;;;;;;;;;;;;;;;;;;5142529;27;28736;-77
2024/01/18 22:34:41;;;;;;;;;;;;;;;;;;5137902;27;28476;-78
2024/01/18 22:37:06;;;;;;;;;;;;;;;;;;5147115;27;28568;-79
2024/01/18 22:39:32;;;;;;;;;;;;;;;;;;5149182;27;28725;-80
2024/01/18 22:41:57;;;;;;;;;;;;;;;;;;5145438;27;28442;-80
2024/01/18 22:44:22;;;;;;;;;;;;;;;;;;5150073;27;28428;-80
2024/01/18 22:46:47;;;;;;;;;;;;;;;;;;5137467;27;28351;-80
2024/01/18 22:49:12;;;;;;;;;;;;;;;;;;5134093;27;28884;-79
2024/01/18 22:51:39;;;;;;;;;;;;;;;;;;5129702;27;28439;-79
2024/01/18 22:54:04;;;;;;;;;;;;;;;;;;5130465;27;28537;-79
2024/01/18 22:56:29;;;;;;;;;;;;;;;;;;5145212;27;28568;-78
2024/01/18 22:58:54;;;;;;;;;;;;;;;;;;5135715;27;28860;-78
2024/01/18 23:01:20;;;;;;;;;;;;;;;;;;5120033;27;29171;-78
2024/01/18 23:03:47;;;;;;;;;;;;;;;;;;5146474;27;29876;-78
2024/01/18 23:06:12;;;;;;;;;;;;;;;;;;5134706;27;28773;-79
2024/01/18 23:08:37;;;;;;;;;;;;;;;;;;5154244;27;28740;-79
2024/01/18 23:11:02;;;;;;;;;;;;;;;;;;5131763;27;28819;-77
2024/01/18 23:13:28;;;;;;;;;;;;;;;;;;5123782;27;29647;-77
2024/01/18 23:15:54;;;;;;;;;;;;;;;;;;5144273;27;28597;-77
2024/01/18 23:18:19;;;;;;;;;;;;;;;;;;5128601;27;28535;-77
2024/01/18 23:20:44;;;;;;;;;;;;;;;;;;5132991;27;30360;-76
2024/01/18 23:23:09;;;;;;;;;;;;;;;;;;5126371;27;29167;-79
2024/01/18 23:25:35;;;;;;;;;;;;;;;;;;5130777;27;28540;-79
2024/01/18 23:28:00;;;;;;;;;;;;;;;;;;5133111;27;28684;-77
2024/01/18 23:30:25;;;;;;;;;;;;;;;;;;5132717;27;28424;-77
2024/01/18 23:32:50;;;;;;;;;;;;;;;;;;5133661;27;30117;-77
2024/01/18 23:35:15;;;;;;;;;;;;;;;;;;5115878;27;28324;-76
2024/01/18 23:37:40;;;;;;;;;;;;;;;;;;5133739;27;28742;-78
2024/01/18 23:40:05;;;;;;;;;;;;;;;;;;5133888;27;28669;-77
2024/01/18 23:42:30;;;;;;;;;;;;;;;;;;5128585;27;28390;-78
2024/01/18 23:44:55;;;;;;;;;;;;;;;;;;5141969;27;28841;-80
2024/01/18 23:47:21;;;;;;;;;;;;;;;;;;5133267;27;28957;-78
2024/01/18 23:49:46;;;;;;;;;;;;;;;;;;5130816;27;28777;-79
2024/01/18 23:52:11;;;;;;;;;;;;;;;;;;5131172;27;28766;-78
2024/01/18 23:54:36;;;;;;;;;;;;;;;;;;5133281;27;28705;-78
2024/01/18 23:57:01;;;;;;;;;;;;;;;;;;5142899;27;28370;-80
2024/01/18 23:59:26;;;;;;;;;;;;;;;;;;5153171;27;29148;-79
